Time,TemperatureF,DewpointF,PressureIn,WindDirection,WindDirectionDegrees,WindSpeedMPH,WindSpeedGustMPH,Humidity,HourlyPrecipIn,Conditions,Clouds,dailyrainin,SolarRadiationWatts/m^2,SoftwareType,DateUTC
2013-05-27 00:02:00,43.0,37.0,-100.00,NW,315,1.0,5.0,80,0.00,,,0.18,0.000000,,2013-05-27 07:02:00,
2013-05-27 00:11:00,43.0,37.0,-100.00,NW,315,1.0,5.0,80,0.00,,,0.18,0.000000,,2013-05-27 07:11:00,
2013-05-27 00:32:00,43.0,38.0,-100.00,SW,232,3.0,8.0,82,0.00,,,0.18,0.000000,,2013-05-27 07:32:00,
2013-05-27 00:42:00,43.0,38.0,-100.00,SW,232,3.0,8.0,82,0.00,,,0.18,0.000000,,2013-05-27 07:42:00,
2013-05-27 00:52:00,43.0,38.0,-100.00,SW,232,3.0,8.0,82,0.00,,,0.18,0.000000,,2013-05-27 07:52:00,
2013-05-27 01:02:00,43.0,38.0,-100.00,SW,232,3.0,8.0,82,0.00,,,0.18,0.000000,,2013-05-27 08:02:00,
2013-05-27 01:11:00,43.0,38.0,-100.00,SW,232,3.0,8.0,82,0.00,,,0.18,0.000000,,2013-05-27 08:11:00,
2013-05-27 01:33:00,44.0,38.0,-100.00,SW,220,5.0,13.0,78,0.00,,,0.18,0.000000,,2013-05-27 08:33:00,
2013-05-27 01:42:00,44.0,38.0,-100.00,SW,220,5.0,13.0,78,0.00,,,0.18,0.000000,,2013-05-27 08:42:00,
2013-05-27 01:52:00,44.0,38.0,-100.00,SW,220,5.0,13.0,78,0.00,,,0.18,0.000000,,2013-05-27 08:52:00,
2013-05-27 02:02:00,44.0,38.0,-100.00,SW,220,5.0,13.0,78,0.00,,,0.18,0.000000,,2013-05-27 09:02:00,
2013-05-27 02:11:00,44.0,38.0,-100.00,SW,220,5.0,13.0,78,0.00,,,0.18,0.000000,,2013-05-27 09:11:00,
2013-05-27 02:33:00,44.0,38.0,-100.00,SSW,204,1.0,13.0,80,0.00,,,0.18,0.000000,,2013-05-27 09:33:00,
2013-05-27 02:42:00,44.0,38.0,-100.00,SSW,204,1.0,13.0,80,0.00,,,0.18,0.000000,,2013-05-27 09:42:00,
2013-05-27 02:53:00,44.0,38.0,-100.00,SSW,204,1.0,13.0,80,0.00,,,0.18,0.000000,,2013-05-27 09:53:00,
2013-05-27 03:02:00,44.0,38.0,-100.00,SSW,204,1.0,13.0,80,0.00,,,0.18,0.000000,,2013-05-27 10:02:00,
2013-05-27 03:12:00,44.0,38.0,-100.00,SSW,204,1.0,13.0,80,0.00,,,0.18,0.000000,,2013-05-27 10:12:00,
2013-05-27 03:32:00,42.0,38.0,-100.00,WSW,245,0.0,5.0,86,0.00,,,0.16,0.000000,,2013-05-27 10:32:00,
2013-05-27 03:42:00,42.0,38.0,-100.00,WSW,245,0.0,5.0,86,0.00,,,0.16,0.000000,,2013-05-27 10:42:00,
2013-05-27 03:52:00,42.0,38.0,-100.00,WSW,245,0.0,5.0,86,0.00,,,0.16,0.000000,,2013-05-27 10:52:00,
2013-05-27 04:02:00,42.0,38.0,-100.00,WSW,245,0.0,5.0,86,0.00,,,0.16,0.000000,,2013-05-27 11:02:00,
2013-05-27 04:11:00,42.0,38.0,-100.00,WSW,245,0.0,5.0,86,0.00,,,0.16,0.000000,,2013-05-27 11:11:00,
2013-05-27 04:32:00,43.0,39.0,-100.00,South,188,0.0,3.0,86,0.00,,,-99.99,0.000000,,2013-05-27 11:32:00,
2013-05-27 04:42:00,43.0,39.0,-100.00,South,188,0.0,3.0,86,0.00,,,-99.99,0.000000,,2013-05-27 11:42:00,
2013-05-27 04:52:00,43.0,39.0,-100.00,South,188,0.0,3.0,86,0.00,,,-99.99,0.000000,,2013-05-27 11:52:00,
2013-05-27 05:01:00,43.0,39.0,-100.00,South,188,0.0,3.0,86,0.00,,,-99.99,0.000000,,2013-05-27 12:01:00,
2013-05-27 05:11:00,43.0,39.0,-100.00,South,188,0.0,3.0,86,0.00,,,-99.99,0.000000,,2013-05-27 12:11:00,
2013-05-27 05:32:00,43.0,40.0,-100.00,SSW,212,2.0,6.0,89,0.01,,,0.08,0.000000,,2013-05-27 12:32:00,
2013-05-27 05:42:00,43.0,40.0,-100.00,SSW,212,2.0,6.0,89,0.01,,,0.08,0.000000,,2013-05-27 12:42:00,
2013-05-27 05:52:00,43.0,40.0,-100.00,SSW,212,2.0,6.0,89,0.01,,,0.08,0.000000,,2013-05-27 12:52:00,
2013-05-27 06:01:00,43.0,40.0,-100.00,SSW,212,2.0,6.0,89,0.01,,,0.08,0.000000,,2013-05-27 13:01:00,
2013-05-27 06:11:00,43.0,40.0,-100.00,SSW,212,2.0,6.0,89,0.01,,,0.08,0.000000,,2013-05-27 13:11:00,
2013-05-27 06:42:00,42.0,41.0,-100.00,SW,214,3.0,6.0,97,0.03,,,0.06,8.000000,,2013-05-27 13:42:00,
2013-05-27 06:52:00,42.0,41.0,-100.00,SW,214,3.0,6.0,97,0.03,,,0.06,8.000000,,2013-05-27 13:52:00,
2013-05-27 07:01:00,42.0,41.0,-100.00,SW,214,3.0,6.0,97,0.03,,,0.06,8.000000,,2013-05-27 14:01:00,
2013-05-27 07:11:00,42.0,41.0,-100.00,SW,214,3.0,6.0,97,0.03,,,0.06,8.000000,,2013-05-27 14:11:00,
2013-05-27 07:42:00,43.0,42.0,-100.00,SW,222,1.0,7.0,98,0.04,,,0.08,19.000000,,2013-05-27 14:42:00,
2013-05-27 07:52:00,43.0,42.0,-100.00,SW,222,1.0,7.0,98,0.04,,,0.08,19.000000,,2013-05-27 14:52:00,
2013-05-27 08:01:00,43.0,42.0,-100.00,SW,222,1.0,7.0,98,0.04,,,0.08,19.000000,,2013-05-27 15:01:00,
2013-05-27 08:11:00,43.0,42.0,-100.00,SW,222,1.0,7.0,98,0.04,,,0.08,19.000000,,2013-05-27 15:11:00,
2013-05-27 08:33:00,43.0,43.0,-100.00,SSW,203,1.0,5.0,99,0.06,,,0.14,43.000000,,2013-05-27 15:33:00,
2013-05-27 08:43:00,43.0,43.0,-100.00,SSW,203,1.0,5.0,99,0.06,,,0.14,43.000000,,2013-05-27 15:43:00,
2013-05-27 08:53:00,43.0,43.0,-100.00,SSW,203,1.0,5.0,99,0.06,,,0.14,43.000000,,2013-05-27 15:53:00,
2013-05-27 09:02:00,43.0,43.0,-100.00,SSW,203,1.0,5.0,99,0.06,,,0.14,43.000000,,2013-05-27 16:02:00,
2013-05-27 09:12:00,43.0,43.0,-100.00,SSW,203,1.0,5.0,99,0.06,,,0.14,43.000000,,2013-05-27 16:12:00,
2013-05-27 09:33:00,45.0,44.0,-100.00,SE,142,1.0,4.0,98,0.06,,,0.20,87.000000,,2013-05-27 16:33:00,
2013-05-27 09:42:00,45.0,44.0,-100.00,SE,142,1.0,4.0,98,0.06,,,0.20,87.000000,,2013-05-27 16:42:00,
2013-05-27 09:52:00,45.0,44.0,-100.00,SE,142,1.0,4.0,98,0.06,,,0.20,87.000000,,2013-05-27 16:52:00,
2013-05-27 10:02:00,45.0,44.0,-100.00,SE,142,1.0,4.0,98,0.06,,,0.20,87.000000,,2013-05-27 17:02:00,
2013-05-27 10:11:00,45.0,44.0,-100.00,SE,142,1.0,4.0,98,0.06,,,0.20,87.000000,,2013-05-27 17:11:00,
2013-05-27 10:32:00,45.0,44.0,-100.00,SSW,206,1.0,4.0,98,0.04,,,0.24,128.000000,,2013-05-27 17:32:00,
2013-05-27 10:43:00,45.0,44.0,-100.00,SSW,206,1.0,4.0,98,0.04,,,0.24,128.000000,,2013-05-27 17:43:00,
2013-05-27 10:52:00,45.0,44.0,-100.00,SSW,206,1.0,4.0,98,0.04,,,0.24,128.000000,,2013-05-27 17:52:00,
2013-05-27 11:02:00,45.0,44.0,-100.00,SSW,206,1.0,4.0,98,0.04,,,0.24,128.000000,,2013-05-27 18:02:00,
2013-05-27 11:11:00,45.0,44.0,-100.00,SSW,206,1.0,4.0,98,0.04,,,0.24,128.000000,,2013-05-27 18:11:00,
2013-05-27 11:32:00,46.0,45.0,-100.00,South,189,2.0,6.0,97,0.03,,,0.27,124.000000,,2013-05-27 18:32:00,
2013-05-27 11:42:00,46.0,45.0,-100.00,South,189,2.0,6.0,97,0.03,,,0.27,124.000000,,2013-05-27 18:42:00,
2013-05-27 11:52:00,46.0,45.0,-100.00,South,189,2.0,6.0,97,0.03,,,0.27,124.000000,,2013-05-27 18:52:00,
2013-05-27 12:01:00,46.0,45.0,-100.00,South,189,2.0,6.0,97,0.03,,,0.27,124.000000,,2013-05-27 19:01:00,
2013-05-27 12:11:00,46.0,45.0,-100.00,South,189,2.0,6.0,97,0.03,,,0.27,124.000000,,2013-05-27 19:11:00,
2013-05-27 12:32:00,46.0,45.0,-100.00,South,176,2.0,8.0,97,0.04,,,0.31,131.000000,,2013-05-27 19:32:00,
2013-05-27 12:42:00,46.0,45.0,-100.00,South,176,2.0,8.0,97,0.04,,,0.31,131.000000,,2013-05-27 19:42:00,
2013-05-27 12:52:00,46.0,45.0,-100.00,South,176,2.0,8.0,97,0.04,,,0.31,131.000000,,2013-05-27 19:52:00,
2013-05-27 13:01:00,46.0,45.0,-100.00,South,176,2.0,8.0,97,0.04,,,0.31,131.000000,,2013-05-27 20:01:00,
2013-05-27 13:11:00,46.0,45.0,-100.00,South,176,2.0,8.0,97,0.04,,,0.31,131.000000,,2013-05-27 20:11:00,
2013-05-27 13:32:00,47.0,46.0,-100.00,South,173,2.0,6.0,98,0.06,,,0.37,113.000000,,2013-05-27 20:32:00,
2013-05-27 13:42:00,47.0,46.0,-100.00,South,173,2.0,6.0,98,0.06,,,0.37,113.000000,,2013-05-27 20:42:00,
2013-05-27 13:52:00,47.0,46.0,-100.00,South,173,2.0,6.0,98,0.06,,,0.37,113.000000,,2013-05-27 20:52:00,
2013-05-27 14:01:00,47.0,46.0,-100.00,South,173,2.0,6.0,98,0.06,,,0.37,113.000000,,2013-05-27 21:01:00,
2013-05-27 14:11:00,47.0,46.0,-100.00,South,173,2.0,6.0,98,0.06,,,0.37,113.000000,,2013-05-27 21:11:00,
2013-05-27 14:33:00,49.0,49.0,-100.00,South,171,3.0,6.0,99,0.02,,,0.39,113.000000,,2013-05-27 21:33:00,
2013-05-27 14:43:00,49.0,49.0,-100.00,South,171,3.0,6.0,99,0.02,,,0.39,113.000000,,2013-05-27 21:43:00,
2013-05-27 14:53:00,49.0,49.0,-100.00,South,171,3.0,6.0,99,0.02,,,0.39,113.000000,,2013-05-27 21:53:00,
2013-05-27 15:02:00,49.0,49.0,-100.00,South,171,3.0,6.0,99,0.02,,,0.39,113.000000,,2013-05-27 22:02:00,
2013-05-27 15:12:00,49.0,49.0,-100.00,South,171,3.0,6.0,99,0.02,,,0.39,113.000000,,2013-05-27 22:12:00,
2013-05-27 15:33:00,51.0,50.0,-100.00,South,186,2.0,8.0,97,0.01,,,0.40,130.000000,,2013-05-27 22:33:00,
2013-05-27 15:42:00,51.0,50.0,-100.00,South,186,2.0,8.0,97,0.01,,,0.40,130.000000,,2013-05-27 22:42:00,
2013-05-27 15:53:00,51.0,50.0,-100.00,South,186,2.0,8.0,97,0.01,,,0.40,130.000000,,2013-05-27 22:53:00,
2013-05-27 16:02:00,51.0,50.0,-100.00,South,186,2.0,8.0,97,0.01,,,0.40,130.000000,,2013-05-27 23:02:00,
2013-05-27 16:12:00,51.0,50.0,-100.00,South,186,2.0,8.0,97,0.01,,,0.40,130.000000,,2013-05-27 23:12:00,
2013-05-27 16:42:00,56.0,54.0,-100.00,SSW,210,3.0,7.0,93,0.03,,,0.43,247.000000,,2013-05-27 23:42:00,
2013-05-27 16:52:00,56.0,54.0,-100.00,SSW,210,3.0,7.0,93,0.03,,,0.43,247.000000,,2013-05-27 23:52:00,
2013-05-27 17:01:00,56.0,54.0,-100.00,SSW,210,3.0,7.0,93,0.03,,,0.43,247.000000,,2013-05-28 00:01:00,
2013-05-27 17:11:00,56.0,54.0,-100.00,SSW,210,3.0,7.0,93,0.03,,,0.43,247.000000,,2013-05-28 00:11:00,
2013-05-27 18:32:00,51.0,48.0,-100.00,WSW,250,1.0,15.0,88,-99.99,,,0.43,176.000000,,2013-05-28 01:32:00,
2013-05-27 18:42:00,51.0,48.0,-100.00,WSW,250,1.0,15.0,88,-99.99,,,0.43,176.000000,,2013-05-28 01:42:00,
2013-05-27 18:52:00,51.0,48.0,-100.00,WSW,250,1.0,15.0,88,-99.99,,,0.43,176.000000,,2013-05-28 01:52:00,
2013-05-27 19:02:00,51.0,48.0,-100.00,WSW,250,1.0,15.0,88,-99.99,,,0.43,176.000000,,2013-05-28 02:02:00,
2013-05-27 19:11:00,51.0,48.0,-100.00,WSW,250,1.0,15.0,88,-99.99,,,0.43,176.000000,,2013-05-28 02:11:00,
2013-05-27 19:32:00,48.0,45.0,-100.00,WSW,238,3.0,9.0,91,0.02,,,0.45,75.000000,,2013-05-28 02:32:00,
2013-05-27 19:42:00,48.0,45.0,-100.00,WSW,238,3.0,9.0,91,0.02,,,0.45,75.000000,,2013-05-28 02:42:00,
2013-05-27 19:52:00,48.0,45.0,-100.00,WSW,238,3.0,9.0,91,0.02,,,0.45,75.000000,,2013-05-28 02:52:00,
2013-05-27 20:01:00,48.0,45.0,-100.00,WSW,238,3.0,9.0,91,0.02,,,0.45,75.000000,,2013-05-28 03:01:00,
2013-05-27 20:11:00,48.0,45.0,-100.00,WSW,238,3.0,9.0,91,0.02,,,0.45,75.000000,,2013-05-28 03:11:00,
2013-05-27 20:33:00,47.0,45.0,-100.00,SW,214,1.0,9.0,94,0.00,,,0.45,40.000000,,2013-05-28 03:33:00,
2013-05-27 20:43:00,47.0,45.0,-100.00,SW,214,1.0,9.0,94,0.00,,,0.45,40.000000,,2013-05-28 03:43:00,
2013-05-27 20:53:00,47.0,45.0,-100.00,SW,214,1.0,9.0,94,0.00,,,0.45,40.000000,,2013-05-28 03:53:00,
2013-05-27 21:02:00,47.0,45.0,-100.00,SW,214,1.0,9.0,94,0.00,,,0.45,40.000000,,2013-05-28 04:02:00,
2013-05-27 21:12:00,47.0,45.0,-100.00,SW,214,1.0,9.0,94,0.00,,,0.45,40.000000,,2013-05-28 04:12:00,
2013-05-27 21:33:00,46.0,44.0,-100.00,SW,228,5.0,12.0,92,0.00,,,0.45,8.000000,,2013-05-28 04:33:00,
2013-05-27 21:43:00,46.0,44.0,-100.00,SW,228,5.0,12.0,92,0.00,,,0.45,8.000000,,2013-05-28 04:43:00,
2013-05-27 21:52:00,46.0,44.0,-100.00,SW,228,5.0,12.0,92,0.00,,,0.45,8.000000,,2013-05-28 04:52:00,
2013-05-27 22:02:00,46.0,44.0,-100.00,SW,228,5.0,12.0,92,0.00,,,0.45,8.000000,,2013-05-28 05:02:00,
2013-05-27 22:12:00,46.0,44.0,-100.00,SW,228,5.0,12.0,92,0.00,,,0.45,8.000000,,2013-05-28 05:12:00,
2013-05-27 22:33:00,45.0,42.0,-100.00,WSW,249,2.0,9.0,89,0.00,,,0.45,0.000000,,2013-05-28 05:33:00,
2013-05-27 22:42:00,45.0,42.0,-100.00,WSW,249,2.0,9.0,89,0.00,,,0.45,0.000000,,2013-05-28 05:42:00,
2013-05-27 22:52:00,45.0,42.0,-100.00,WSW,249,2.0,9.0,89,0.00,,,0.45,0.000000,,2013-05-28 05:52:00,
2013-05-27 23:02:00,45.0,42.0,-100.00,WSW,249,2.0,9.0,89,0.00,,,0.45,0.000000,,2013-05-28 06:02:00,
2013-05-27 23:11:00,45.0,42.0,-100.00,WSW,249,2.0,9.0,89,0.00,,,0.45,0.000000,,2013-05-28 06:11:00,
2013-05-27 23:32:00,44.0,41.0,-100.00,SW,219,3.0,7.0,90,0.01,,,0.46,0.000000,,2013-05-28 06:32:00,
2013-05-27 23:42:00,44.0,41.0,-100.00,SW,219,3.0,7.0,90,0.01,,,0.46,0.000000,,2013-05-28 06:42:00,
2013-05-27 23:52:00,44.0,41.0,-100.00,SW,219,3.0,7.0,90,0.01,,,0.46,0.000000,,2013-05-28 06:52:00,